createdAt,value
2023-05-15T00:00:13.383Z,95.34
2023-05-15T00:01:13.384Z,95.45
2023-05-15T00:02:13.431Z,95.45
2023-05-15T00:03:13.478Z,95.45
2023-05-15T00:04:13.382Z,95.45
2023-05-15T00:05:13.397Z,95.55
2023-05-15T00:06:13.330Z,95.55
2023-05-15T00:07:13.333Z,95.65
2023-05-15T00:08:13.289Z,95.55
2023-05-15T00:09:13.331Z,95.55
2023-05-15T00:10:13.282Z,95.55
2023-05-15T00:11:13.276Z,95.45
2023-05-15T00:12:13.282Z,95.39
2023-05-15T00:13:13.291Z,95.28
2023-05-15T00:14:13.534Z,95.39
2023-05-15T00:15:13.702Z,95.28
2023-05-15T00:16:13.262Z,95.28
2023-05-15T00:17:13.207Z,95.28
2023-05-15T00:18:13.244Z,95.28
2023-05-15T00:19:13.273Z,95.28
2023-05-15T00:20:13.183Z,95.28
2023-05-15T00:21:13.194Z,95.18
2023-05-15T00:22:13.141Z,95.28
2023-05-15T00:23:13.141Z,95.28
2023-05-15T00:24:13.115Z,95.28
2023-05-15T00:25:13.124Z,95.33
2023-05-15T00:26:13.168Z,95.43
2023-05-15T00:27:13.101Z,95.43
2023-05-15T00:28:13.080Z,95.53
2023-05-15T00:29:13.078Z,95.53
2023-05-15T00:30:13.065Z,95.53
2023-05-15T00:31:13.148Z,95.53
2023-05-15T00:32:13.095Z,95.64
2023-05-15T00:33:13.342Z,95.64
2023-05-15T00:34:13.010Z,95.64
2023-05-15T00:35:13.144Z,95.64
2023-05-15T00:36:12.985Z,95.53
2023-05-15T00:37:13.027Z,95.53
2023-05-15T00:38:13.138Z,95.53
2023-05-15T00:39:12.979Z,95.53
2023-05-15T00:40:12.938Z,95.53
2023-05-15T00:41:12.939Z,95.53
2023-05-15T00:42:12.966Z,95.64
2023-05-15T00:43:12.937Z,95.74
2023-05-15T00:44:12.926Z,95.95
2023-05-15T00:45:12.907Z,96.05
2023-05-15T00:46:12.887Z,96.25
2023-05-15T00:47:12.955Z,96.36
2023-05-15T00:48:12.893Z,96.46
2023-05-15T00:49:12.871Z,96.46
2023-05-15T00:50:13.203Z,96.56
2023-05-15T00:51:12.854Z,96.56
2023-05-15T00:52:12.821Z,96.56
2023-05-15T00:53:12.846Z,96.56
2023-05-15T00:54:12.861Z,96.41
2023-05-15T00:55:12.966Z,96.41
2023-05-15T00:56:13.013Z,96.41
2023-05-15T00:57:12.797Z,96.30
2023-05-15T00:58:12.737Z,96.30
2023-05-15T00:59:12.760Z,96.30
2023-05-15T01:00:12.726Z,96.30
2023-05-15T01:01:12.794Z,96.20
2023-05-15T01:02:12.759Z,96.20
2023-05-15T01:03:12.779Z,96.30
2023-05-15T01:04:12.693Z,96.30
2023-05-15T01:05:12.711Z,96.41
2023-05-15T01:06:12.634Z,96.50
2023-05-15T01:07:12.726Z,96.50
2023-05-15T01:08:12.608Z,96.50
2023-05-15T01:09:12.629Z,96.41
2023-05-15T01:10:12.598Z,96.41
2023-05-15T01:11:12.601Z,96.41
2023-05-15T01:12:12.567Z,96.45
2023-05-15T01:13:12.612Z,96.45
2023-05-15T01:14:12.550Z,96.45
2023-05-15T01:15:12.832Z,96.45
2023-05-15T01:16:12.690Z,96.34
2023-05-15T01:17:12.550Z,96.34
2023-05-15T01:18:12.551Z,96.34
2023-05-15T01:19:12.579Z,96.34
2023-05-15T01:20:12.488Z,96.34
2023-05-15T01:21:12.516Z,96.34
2023-05-15T01:22:12.488Z,96.34
2023-05-15T01:23:12.657Z,96.34
2023-05-15T01:24:12.481Z,96.34
2023-05-15T01:25:12.450Z,96.45
2023-05-15T01:26:12.407Z,96.34
2023-05-15T01:27:12.469Z,96.34
2023-05-15T01:28:12.402Z,96.34
2023-05-15T01:29:12.414Z,96.39
2023-05-15T01:30:12.373Z,96.49
2023-05-15T01:31:12.442Z,96.59
2023-05-15T01:32:12.459Z,96.59
2023-05-15T01:33:12.393Z,96.70
2023-05-15T01:34:12.353Z,96.66
2023-05-15T01:35:12.629Z,96.55
2023-05-15T01:36:12.748Z,96.59
2023-05-15T01:37:12.397Z,96.59
2023-05-15T01:38:12.336Z,96.59
2023-05-15T01:39:12.308Z,96.59
2023-05-15T01:40:12.277Z,96.59
2023-05-15T01:41:12.284Z,96.49
2023-05-15T01:42:12.296Z,96.49
2023-05-15T01:43:12.389Z,96.39
2023-05-15T01:44:12.201Z,96.49
2023-05-15T01:45:12.273Z,96.53
2023-05-15T01:46:12.211Z,96.44
2023-05-15T01:47:12.200Z,96.53
2023-05-15T01:48:12.190Z,96.44
2023-05-15T01:49:12.177Z,96.33
2023-05-15T01:50:12.144Z,96.23
2023-05-15T01:51:12.158Z,96.23
2023-05-15T01:52:12.121Z,96.23
2023-05-15T01:53:12.118Z,96.23
2023-05-15T01:54:12.124Z,96.23
2023-05-15T01:55:12.086Z,96.33
2023-05-15T01:56:12.367Z,96.23
2023-05-15T01:57:12.057Z,96.27
2023-05-15T01:58:12.075Z,96.27
2023-05-15T01:59:12.062Z,96.37
2023-05-15T02:00:12.201Z,96.37
2023-05-15T02:01:12.004Z,96.37
2023-05-15T02:02:12.041Z,96.48
2023-05-15T02:03:12.040Z,96.48
2023-05-15T02:04:12.016Z,96.58
2023-05-15T02:05:12.015Z,96.58
2023-05-15T02:06:12.078Z,96.58
2023-05-15T02:07:11.946Z,96.58
2023-05-15T02:08:12.140Z,96.58
2023-05-15T02:09:12.003Z,96.48
2023-05-15T02:10:11.942Z,96.58
2023-05-15T02:11:11.926Z,96.58
2023-05-15T02:12:11.933Z,96.58
2023-05-15T02:13:11.881Z,96.58
2023-05-15T02:14:11.926Z,96.58
2023-05-15T02:15:11.908Z,96.58
2023-05-15T02:16:11.888Z,96.58
2023-05-15T02:17:12.006Z,96.69
2023-05-15T02:18:12.218Z,96.69
2023-05-15T02:19:12.312Z,96.69
2023-05-15T02:20:11.817Z,96.73
2023-05-15T02:21:11.841Z,96.69
2023-05-15T02:22:11.795Z,96.73
2023-05-15T02:23:11.760Z,96.62
2023-05-15T02:24:11.794Z,96.62
2023-05-15T02:25:11.931Z,96.62
2023-05-15T02:26:11.784Z,96.62
2023-05-15T02:27:11.741Z,96.62
2023-05-15T02:28:11.724Z,96.73
2023-05-15T02:29:11.722Z,96.83
2023-05-15T02:30:12.220Z,96.83
2023-05-15T02:31:11.667Z,96.83
2023-05-15T02:32:11.763Z,96.94
2023-05-15T02:33:11.678Z,96.94
2023-05-15T02:34:11.672Z,97.04
2023-05-15T02:35:11.626Z,97.04
2023-05-15T02:36:11.828Z,97.04
2023-05-15T02:37:11.826Z,97.04
2023-05-15T02:38:11.837Z,97.04
2023-05-15T02:39:11.570Z,96.94
2023-05-15T02:40:11.635Z,96.94
2023-05-15T02:41:11.661Z,96.94
2023-05-15T02:42:11.569Z,96.83
2023-05-15T02:43:11.555Z,96.83
2023-05-15T02:44:11.540Z,96.83
2023-05-15T02:45:11.514Z,96.83
2023-05-15T02:46:11.560Z,96.83
2023-05-15T02:47:11.526Z,96.77
2023-05-15T02:48:11.493Z,96.88
2023-05-15T02:49:11.468Z,96.77
2023-05-15T02:50:11.484Z,96.77
2023-05-15T02:51:11.468Z,96.77
2023-05-15T02:52:11.444Z,96.77
2023-05-15T02:53:11.396Z,96.77
2023-05-15T02:54:11.447Z,96.77
2023-05-15T02:55:11.388Z,96.77
2023-05-15T02:56:11.386Z,96.77
2023-05-15T02:57:11.464Z,96.88
2023-05-15T02:58:11.465Z,96.88
2023-05-15T02:59:11.380Z,96.88
2023-05-15T03:00:11.346Z,96.88
2023-05-15T03:01:11.318Z,96.88
2023-05-15T03:02:11.362Z,96.77
2023-05-15T03:03:11.338Z,96.88
2023-05-15T03:04:11.327Z,96.88
2023-05-15T03:05:11.276Z,96.88
2023-05-15T03:06:11.306Z,96.88
2023-05-15T03:07:11.241Z,96.88
2023-05-15T03:08:11.261Z,96.88
2023-05-15T03:09:11.215Z,96.88
2023-05-15T03:10:11.253Z,96.77
2023-05-15T03:11:11.229Z,96.77
2023-05-15T03:12:11.220Z,96.77
2023-05-15T03:13:11.164Z,96.77
2023-05-15T03:14:11.210Z,96.77
2023-05-15T03:15:11.159Z,96.77
2023-05-15T03:16:11.166Z,96.77
2023-05-15T03:17:11.124Z,96.67
2023-05-15T03:18:11.341Z,96.67
2023-05-15T03:19:11.495Z,96.67
2023-05-15T03:20:11.144Z,96.56
2023-05-15T03:21:11.080Z,96.56
2023-05-15T03:22:11.117Z,96.56
2023-05-15T03:23:11.079Z,96.47
2023-05-15T03:24:11.060Z,96.41
2023-05-15T03:25:11.036Z,96.41
2023-05-15T03:26:11.050Z,96.41
2023-05-15T03:27:11.037Z,96.30
2023-05-15T03:28:11.013Z,96.41
2023-05-15T03:29:10.982Z,96.41
2023-05-15T03:30:11.028Z,96.30
2023-05-15T03:31:11.031Z,96.41
2023-05-15T03:32:10.963Z,96.30
2023-05-15T03:33:10.967Z,96.30
2023-05-15T03:34:10.983Z,96.30
2023-05-15T03:35:10.908Z,96.30
2023-05-15T03:36:10.936Z,96.30
2023-05-15T03:37:10.915Z,96.30
2023-05-15T03:38:11.238Z,96.30
2023-05-15T03:39:11.024Z,96.41
2023-05-15T03:40:10.986Z,96.41
2023-05-15T03:41:11.352Z,96.41
2023-05-15T03:42:10.864Z,96.41
2023-05-15T03:43:10.872Z,96.41
2023-05-15T03:44:10.842Z,96.61
2023-05-15T03:45:10.837Z,96.61
2023-05-15T03:46:11.174Z,96.61
2023-05-15T03:47:11.103Z,96.61
2023-05-15T03:48:10.800Z,96.61
2023-05-15T03:49:10.779Z,96.51
2023-05-15T03:50:10.852Z,96.51
2023-05-15T03:51:10.779Z,96.51
2023-05-15T03:52:10.773Z,96.51
2023-05-15T03:53:10.737Z,96.51
2023-05-15T03:54:10.825Z,96.51
2023-05-15T03:55:10.785Z,96.51
2023-05-15T03:56:10.777Z,96.51
2023-05-15T03:57:10.780Z,96.51
2023-05-15T03:58:10.755Z,96.51
2023-05-15T03:59:10.639Z,96.61
2023-05-15T04:00:10.838Z,96.61
2023-05-15T04:01:10.621Z,96.61
2023-05-15T04:02:10.775Z,96.72
2023-05-15T04:03:10.733Z,96.72
2023-05-15T04:04:10.660Z,96.72
2023-05-15T04:05:10.840Z,96.67
2023-05-15T04:06:10.590Z,96.56
2023-05-15T04:07:10.565Z,96.56
2023-05-15T04:08:10.579Z,96.56
2023-05-15T04:09:10.533Z,96.56
2023-05-15T04:10:10.609Z,96.56
2023-05-15T04:11:10.628Z,96.56
2023-05-15T04:12:10.525Z,96.42
2023-05-15T04:13:10.491Z,96.42
2023-05-15T04:14:10.516Z,96.31
2023-05-15T04:15:10.459Z,96.31
2023-05-15T04:16:10.534Z,96.31
2023-05-15T04:17:10.448Z,96.27
2023-05-15T04:18:10.440Z,96.37
2023-05-15T04:19:10.521Z,96.48
2023-05-15T04:20:10.562Z,96.58
2023-05-15T04:21:10.508Z,96.69
2023-05-15T04:22:10.496Z,96.69
2023-05-15T04:23:10.381Z,96.79
2023-05-15T04:24:10.490Z,96.69
2023-05-15T04:25:10.340Z,96.48
2023-05-15T04:26:10.380Z,96.37
2023-05-15T04:27:10.365Z,96.17
2023-05-15T04:28:10.424Z,96.17
2023-05-15T04:29:10.490Z,96.17
2023-05-15T04:30:10.577Z,96.17
2023-05-15T04:31:10.294Z,96.06
2023-05-15T04:32:10.450Z,96.02
2023-05-15T04:33:10.294Z,96.02
2023-05-15T04:34:10.260Z,95.92
2023-05-15T04:35:10.445Z,95.81
2023-05-15T04:36:10.227Z,95.77
2023-05-15T04:37:10.359Z,95.56
2023-05-15T04:38:10.320Z,95.36
2023-05-15T04:39:10.848Z,95.15
2023-05-15T04:40:10.397Z,95.00
2023-05-15T04:41:10.400Z,94.90
2023-05-15T04:42:10.582Z,94.80
2023-05-15T04:43:10.172Z,94.70
2023-05-15T04:44:10.183Z,94.59
2023-05-15T04:45:10.152Z,94.45
2023-05-15T04:46:10.217Z,94.24
2023-05-15T04:47:10.100Z,94.13
2023-05-15T04:48:10.197Z,93.83
2023-05-15T04:49:10.298Z,93.41
2023-05-15T04:50:10.400Z,93.21
2023-05-15T04:51:10.057Z,93.16
2023-05-15T04:52:10.074Z,93.06
2023-05-15T04:53:10.574Z,93.06
2023-05-15T04:54:10.692Z,93.06
2023-05-15T04:55:10.007Z,92.96
2023-05-15T04:56:10.011Z,92.86
2023-05-15T04:57:09.992Z,92.82
2023-05-15T04:58:10.163Z,92.71
2023-05-15T04:59:09.961Z,92.82
2023-05-15T05:00:10.302Z,92.82
2023-05-15T05:01:10.200Z,92.82
2023-05-15T05:02:10.328Z,92.71
2023-05-15T05:03:10.068Z,92.71
2023-05-15T05:04:10.036Z,92.61
2023-05-15T05:05:10.089Z,92.57
2023-05-15T05:06:09.902Z,92.67
2023-05-15T05:07:09.880Z,92.67
2023-05-15T05:08:09.896Z,92.67
2023-05-15T05:09:10.246Z,92.52
2023-05-15T05:10:10.352Z,92.52
2023-05-15T05:11:09.821Z,92.42
2023-05-15T05:12:10.487Z,92.32
2023-05-15T05:13:09.785Z,92.17
2023-05-15T05:14:09.790Z,92.07
2023-05-15T05:15:09.790Z,91.86
2023-05-15T05:16:09.862Z,91.72
2023-05-15T05:17:09.748Z,91.61
2023-05-15T05:18:09.910Z,91.41
2023-05-15T05:19:09.794Z,91.31
2023-05-15T05:20:12.484Z,91.31
2023-05-15T05:21:09.735Z,91.10
2023-05-15T05:22:09.804Z,91.31
2023-05-15T05:23:09.905Z,91.47
2023-05-15T05:24:09.679Z,91.47
2023-05-15T05:25:09.662Z,91.37
2023-05-15T05:26:09.674Z,91.27
2023-05-15T05:27:10.039Z,91.06
2023-05-15T05:28:10.152Z,90.85
2023-05-15T05:29:09.629Z,90.65
2023-05-15T05:30:09.658Z,90.34
2023-05-15T05:31:09.893Z,90.09
2023-05-15T05:32:09.593Z,89.89
2023-05-15T05:33:09.593Z,89.69
2023-05-15T05:34:09.620Z,89.78
2023-05-15T05:35:09.585Z,89.69
2023-05-15T05:36:09.877Z,89.69
2023-05-15T05:37:09.512Z,89.64
2023-05-15T05:38:09.542Z,89.03
2023-05-15T05:39:09.493Z,88.51
2023-05-15T05:40:09.510Z,88.41
2023-05-15T05:41:09.465Z,88.31
2023-05-15T05:42:09.577Z,88.41
2023-05-15T05:43:09.530Z,88.27
2023-05-15T05:44:09.451Z,88.37
2023-05-15T05:45:09.502Z,88.47
2023-05-15T05:46:09.499Z,88.37
2023-05-15T05:47:09.510Z,88.27
2023-05-15T05:48:09.452Z,88.17
2023-05-15T05:49:09.394Z,88.12
2023-05-15T05:50:09.401Z,88.12
2023-05-15T05:51:09.357Z,88.12
2023-05-15T05:52:10.224Z,87.92
2023-05-15T05:53:09.352Z,87.82
2023-05-15T05:54:09.363Z,87.77
2023-05-15T05:55:09.508Z,87.88
2023-05-15T05:56:09.331Z,88.08
2023-05-15T05:57:09.305Z,87.98
2023-05-15T05:58:23.987Z,87.98
2023-05-15T05:59:10.265Z,87.84
2023-05-15T06:00:09.555Z,87.63
2023-05-15T06:01:09.520Z,87.43
2023-05-15T06:02:09.285Z,87.43
2023-05-15T06:03:09.333Z,87.53
2023-05-15T06:04:09.341Z,87.29
2023-05-15T06:05:09.218Z,87.49
2023-05-15T06:06:09.230Z,87.38
2023-05-15T06:07:09.177Z,87.18
2023-05-15T06:08:09.202Z,87.29
2023-05-15T06:09:09.177Z,86.98
2023-05-15T06:10:09.134Z,86.94
2023-05-15T06:11:09.186Z,87.14
2023-05-15T06:12:09.173Z,87.14
2023-05-15T06:13:09.165Z,87.14
2023-05-15T06:14:09.133Z,87.14
2023-05-15T06:15:09.090Z,87.00
2023-05-15T06:16:09.062Z,87.00
2023-05-15T06:17:09.220Z,87.00
2023-05-15T06:18:09.154Z,87.00
2023-05-15T06:19:09.117Z,86.69
2023-05-15T06:20:09.020Z,86.49
2023-05-15T06:21:09.061Z,86.35
2023-05-15T06:22:09.003Z,86.35
2023-05-15T06:23:09.416Z,86.44
2023-05-15T06:24:08.970Z,86.24
2023-05-15T06:25:09.012Z,86.24
2023-05-15T06:26:08.948Z,86.69
2023-05-15T06:27:08.970Z,86.79
2023-05-15T06:28:09.444Z,86.90
2023-05-15T06:29:08.959Z,87.16
2023-05-15T06:30:08.931Z,87.26
2023-05-15T06:31:08.942Z,87.26
2023-05-15T06:32:08.899Z,87.26
2023-05-15T06:33:09.146Z,87.06
2023-05-15T06:34:09.578Z,86.96
2023-05-15T06:35:08.895Z,86.85
2023-05-15T06:36:08.858Z,86.71
2023-05-15T06:37:08.855Z,86.61
2023-05-15T06:38:08.834Z,86.71
2023-05-15T06:39:08.835Z,86.71
2023-05-15T06:40:09.047Z,86.61
2023-05-15T06:41:09.443Z,86.57
2023-05-15T06:42:08.775Z,86.77
2023-05-15T06:43:08.786Z,86.88
2023-05-15T06:44:08.788Z,86.57
2023-05-15T06:45:08.865Z,86.47
2023-05-15T06:46:08.759Z,86.57
2023-05-15T06:47:08.934Z,86.67
2023-05-15T06:48:08.816Z,86.53
2023-05-15T06:49:08.725Z,86.22
2023-05-15T06:50:08.718Z,86.22
2023-05-15T06:51:08.695Z,86.02
2023-05-15T06:52:08.678Z,85.71
2023-05-15T06:53:08.677Z,85.61
2023-05-15T06:54:09.010Z,85.68
2023-05-15T06:55:08.655Z,85.88
2023-05-15T06:56:08.653Z,85.98
2023-05-15T06:57:08.629Z,85.98
2023-05-15T06:58:08.599Z,85.88
2023-05-15T06:59:08.600Z,85.68
2023-05-15T07:00:08.646Z,85.57
2023-05-15T07:01:08.578Z,85.57
2023-05-15T07:02:09.355Z,85.63
2023-05-15T07:03:08.622Z,85.33
2023-05-15T07:04:08.534Z,85.33
2023-05-15T07:05:08.674Z,85.33
2023-05-15T07:06:08.498Z,85.02
2023-05-15T07:07:08.598Z,84.67
2023-05-15T07:08:08.517Z,84.47
2023-05-15T07:09:08.498Z,84.58
2023-05-15T07:10:08.467Z,84.67
2023-05-15T07:11:08.464Z,84.88
2023-05-15T07:12:08.448Z,84.88
2023-05-15T07:13:08.439Z,84.74
2023-05-15T07:14:08.839Z,84.53
2023-05-15T07:15:08.859Z,84.12
2023-05-15T07:16:08.406Z,83.82
2023-05-15T07:17:08.495Z,83.82
2023-05-15T07:18:08.994Z,83.82
2023-05-15T07:19:08.423Z,84.23
2023-05-15T07:20:08.612Z,84.33
2023-05-15T07:21:08.399Z,84.53
2023-05-15T07:22:08.338Z,84.74
2023-05-15T07:23:08.551Z,84.74
2023-05-15T07:24:08.294Z,84.94
2023-05-15T07:25:08.339Z,85.14
2023-05-15T07:26:13.996Z,84.84
2023-05-15T07:27:09.326Z,85.14
2023-05-15T07:28:08.274Z,85.25
2023-05-15T07:29:08.629Z,85.55
2023-05-15T07:30:08.281Z,85.66
2023-05-15T07:31:08.255Z,85.55
2023-05-15T07:32:08.223Z,85.45
2023-05-15T07:33:08.262Z,85.61
2023-05-15T07:34:08.770Z,85.11
2023-05-15T07:35:08.270Z,84.90
2023-05-15T07:36:08.246Z,84.97
2023-05-15T07:37:08.799Z,84.86
2023-05-15T07:38:08.269Z,84.35
2023-05-15T07:39:08.192Z,84.25
2023-05-15T07:40:08.721Z,83.03
2023-05-15T07:41:08.168Z,83.58
2023-05-15T07:42:08.126Z,84.15
2023-05-15T07:43:08.116Z,83.74
2023-05-15T07:44:08.100Z,83.84
2023-05-15T07:45:08.291Z,83.95
2023-05-15T07:46:08.138Z,84.05
2023-05-15T07:47:08.085Z,83.64
2023-05-15T07:48:08.073Z,83.34
2023-05-15T07:49:08.068Z,83.44
2023-05-15T07:50:08.019Z,83.34
2023-05-15T07:51:08.480Z,83.03
2023-05-15T07:52:08.044Z,82.93
2023-05-15T07:53:07.993Z,82.68
2023-05-15T07:54:07.995Z,82.59
2023-05-15T07:55:08.720Z,82.79
2023-05-15T07:56:08.008Z,82.75
2023-05-15T07:57:07.971Z,82.45
2023-05-15T07:58:07.900Z,82.34
2023-05-15T07:59:07.957Z,81.93
2023-05-15T08:00:07.906Z,82.14
2023-05-15T08:01:07.958Z,81.43
2023-05-15T08:02:08.066Z,81.43
2023-05-15T08:03:08.300Z,80.92
2023-05-15T08:04:07.929Z,80.51
2023-05-15T08:05:07.833Z,80.82
2023-05-15T08:06:07.823Z,81.23
2023-05-15T08:07:07.840Z,81.73
2023-05-15T08:08:07.812Z,81.49
2023-05-15T08:09:07.842Z,80.88
2023-05-15T08:10:07.762Z,80.24
2023-05-15T08:11:07.799Z,79.32
2023-05-15T08:12:07.732Z,79.66
2023-05-15T08:13:08.540Z,80.24
2023-05-15T08:14:07.831Z,80.03
2023-05-15T08:15:08.340Z,79.99
2023-05-15T08:16:08.060Z,79.90
2023-05-15T08:17:07.710Z,79.04
2023-05-15T08:18:07.801Z,78.44
2023-05-15T08:19:07.803Z,78.30
2023-05-15T08:20:07.768Z,77.59
2023-05-15T08:21:07.672Z,77.25
2023-05-15T08:22:07.615Z,76.84
2023-05-15T08:23:07.812Z,75.89
2023-05-15T08:24:07.618Z,75.49
2023-05-15T08:25:07.618Z,75.79
2023-05-15T08:26:07.626Z,74.98
2023-05-15T08:27:07.622Z,74.48
2023-05-15T08:28:07.565Z,75.12
2023-05-15T08:29:07.629Z,75.69
2023-05-15T08:30:07.650Z,75.08
2023-05-15T08:31:07.673Z,75.89
2023-05-15T08:32:07.572Z,75.08
2023-05-15T08:33:07.624Z,73.97
2023-05-15T08:34:07.634Z,73.80
2023-05-15T08:35:07.580Z,74.51
2023-05-15T08:36:07.534Z,74.77
2023-05-15T08:37:07.530Z,74.37
2023-05-15T08:38:07.488Z,74.17
2023-05-15T08:39:07.600Z,74.27
2023-05-15T08:40:07.575Z,73.76
2023-05-15T08:41:07.626Z,74.00
2023-05-15T08:42:07.661Z,74.61
2023-05-15T08:43:07.611Z,75.01
2023-05-15T08:44:07.375Z,75.42
2023-05-15T08:45:07.652Z,75.62
2023-05-15T08:46:07.582Z,75.59
2023-05-15T08:47:07.421Z,75.55
2023-05-15T08:48:07.433Z,74.10
2023-05-15T08:49:07.478Z,73.56
2023-05-15T08:50:07.346Z,72.65
2023-05-15T08:51:07.569Z,72.21
2023-05-15T08:52:07.289Z,71.33
2023-05-15T08:53:07.312Z,71.80
2023-05-15T08:54:07.265Z,71.91
2023-05-15T08:55:07.282Z,71.37
2023-05-15T08:56:07.406Z,71.37
2023-05-15T08:57:07.415Z,71.26
2023-05-15T08:58:07.235Z,71.26
2023-05-15T08:59:07.232Z,71.06
2023-05-15T09:00:08.925Z,70.66
2023-05-15T09:01:07.215Z,70.36
2023-05-15T09:02:07.238Z,70.46
2023-05-15T09:03:07.362Z,69.75
2023-05-15T09:04:07.303Z,69.31
2023-05-15T09:05:07.203Z,69.82
2023-05-15T09:06:07.161Z,69.92
2023-05-15T09:07:07.188Z,69.48
2023-05-15T09:08:07.606Z,69.15
2023-05-15T09:09:07.197Z,68.54
2023-05-15T09:10:07.080Z,65.92
2023-05-15T09:11:07.136Z,66.93
2023-05-15T09:12:07.621Z,66.79
2023-05-15T09:13:11.031Z,65.99
2023-05-15T09:14:07.451Z,66.59
2023-05-15T09:15:07.067Z,67.19
2023-05-15T09:16:07.011Z,66.59
2023-05-15T09:17:07.380Z,66.79
2023-05-15T09:18:08.522Z,66.82
2023-05-15T09:19:07.543Z,67.83
2023-05-15T09:20:07.099Z,67.80
2023-05-15T09:21:07.544Z,67.30
2023-05-15T09:22:07.075Z,66.05
2023-05-15T09:23:07.717Z,66.16
2023-05-15T09:24:07.502Z,66.25
2023-05-15T09:25:06.949Z,66.96
2023-05-15T09:26:06.919Z,66.42
2023-05-15T09:27:07.105Z,65.09
2023-05-15T09:28:07.234Z,65.19
2023-05-15T09:29:07.032Z,65.19
2023-05-15T09:30:07.272Z,64.18
2023-05-15T09:31:06.886Z,64.05
2023-05-15T09:32:07.428Z,63.04
2023-05-15T09:33:06.875Z,63.54
2023-05-15T09:34:06.820Z,64.05
2023-05-15T09:35:06.824Z,63.82
2023-05-15T09:36:06.838Z,63.31
2023-05-15T09:37:06.917Z,63.85
2023-05-15T09:38:07.346Z,63.65
2023-05-15T09:39:06.788Z,63.45
2023-05-15T09:40:06.764Z,61.93
2023-05-15T09:41:06.781Z,63.07
2023-05-15T09:42:06.733Z,63.57
2023-05-15T09:43:10.981Z,62.80
2023-05-15T09:44:06.751Z,64.48
2023-05-15T09:45:06.807Z,63.47
2023-05-15T09:46:07.009Z,63.54
2023-05-15T09:47:06.744Z,63.42
2023-05-15T09:48:06.815Z,63.79
2023-05-15T09:49:06.747Z,62.05
2023-05-15T09:50:06.647Z,62.15
2023-05-15T09:51:06.667Z,62.82
2023-05-15T09:52:06.601Z,61.01
2023-05-15T09:53:06.673Z,60.11
2023-05-15T09:54:06.733Z,60.47
2023-05-15T09:55:07.009Z,62.81
2023-05-15T09:56:06.650Z,62.51
2023-05-15T09:57:06.595Z,63.01
2023-05-15T09:58:06.639Z,62.81
2023-05-15T09:59:06.562Z,62.58
2023-05-15T10:00:06.694Z,62.45
2023-05-15T10:01:06.718Z,60.94
2023-05-15T10:02:06.809Z,61.21
2023-05-15T10:03:06.567Z,60.84
2023-05-15T10:04:06.465Z,61.44
2023-05-15T10:05:06.564Z,61.65
2023-05-15T10:06:06.501Z,61.61
2023-05-15T10:07:06.458Z,59.78
2023-05-15T10:08:06.443Z,59.30
2023-05-15T10:09:06.474Z,61.21
2023-05-15T10:10:06.478Z,60.68
2023-05-15T10:11:06.411Z,59.78
2023-05-15T10:12:06.384Z,59.27
2023-05-15T10:13:06.397Z,59.85
2023-05-15T10:14:06.402Z,59.85
2023-05-15T10:15:06.386Z,58.84
2023-05-15T10:16:06.453Z,59.25
2023-05-15T10:17:06.358Z,59.88
2023-05-15T10:18:06.670Z,59.27
2023-05-15T10:19:06.667Z,59.70
2023-05-15T10:20:06.310Z,60.03
2023-05-15T10:21:06.307Z,62.81
2023-05-15T10:22:06.274Z,63.04
2023-05-15T10:23:06.309Z,63.75
2023-05-15T10:24:06.331Z,64.35
2023-05-15T10:25:06.250Z,63.95
2023-05-15T10:26:06.296Z,63.11
2023-05-15T10:27:06.309Z,62.71
2023-05-15T10:28:06.264Z,60.89
2023-05-15T10:29:06.194Z,61.13
2023-05-15T10:30:06.230Z,62.21
2023-05-15T10:31:06.235Z,61.80
2023-05-15T10:32:06.198Z,61.98
2023-05-15T10:33:06.195Z,62.55
2023-05-15T10:34:06.204Z,62.22
2023-05-15T10:35:06.123Z,61.51
2023-05-15T10:36:06.150Z,61.71
2023-05-15T10:37:06.091Z,61.41
2023-05-15T10:38:06.404Z,61.99
2023-05-15T10:39:06.583Z,61.15
2023-05-15T10:40:06.113Z,59.62
2023-05-15T10:41:16.498Z,59.62
2023-05-15T10:42:07.112Z,59.39
2023-05-15T10:43:06.045Z,58.76
2023-05-15T10:44:06.108Z,57.89
2023-05-15T10:45:06.076Z,58.92
2023-05-15T10:46:06.034Z,59.01
2023-05-15T10:47:06.163Z,59.65
2023-05-15T10:48:06.166Z,59.25
2023-05-15T10:49:05.983Z,58.50
2023-05-15T10:50:05.976Z,59.88
2023-05-15T10:51:06.472Z,58.77
2023-05-15T10:52:05.999Z,58.67
2023-05-15T10:53:05.936Z,59.72
2023-05-15T10:54:05.935Z,59.39
2023-05-15T10:55:05.946Z,59.46
2023-05-15T10:56:05.942Z,58.63
2023-05-15T10:57:05.955Z,58.23
2023-05-15T10:58:05.887Z,56.60
2023-05-15T10:59:05.897Z,57.13
2023-05-15T11:00:05.936Z,57.40
2023-05-15T11:01:05.861Z,56.87
2023-05-15T11:02:05.885Z,55.67
2023-05-15T11:03:06.248Z,55.07
2023-05-15T11:04:05.962Z,55.63
2023-05-15T11:05:05.831Z,57.00
2023-05-15T11:06:05.828Z,56.20
2023-05-15T11:07:05.764Z,55.90
2023-05-15T11:08:05.836Z,56.87
2023-05-15T11:09:06.373Z,56.17
2023-05-15T11:10:06.222Z,56.50
2023-05-15T11:11:05.699Z,56.77
2023-05-15T11:12:05.723Z,56.57
2023-05-15T11:13:05.716Z,56.17
2023-05-15T11:14:05.747Z,55.20
2023-05-15T11:15:05.840Z,55.73
2023-05-15T11:16:05.859Z,57.43
2023-05-15T11:17:05.714Z,55.85
2023-05-15T11:18:05.694Z,57.68
2023-05-15T11:19:05.678Z,57.98
2023-05-15T11:20:05.720Z,57.35
2023-05-15T11:21:05.712Z,57.26
2023-05-15T11:22:05.611Z,57.46
2023-05-15T11:23:05.566Z,56.83
2023-05-15T11:24:05.595Z,56.43
2023-05-15T11:25:05.789Z,56.96
2023-05-15T11:26:05.574Z,58.99
2023-05-15T11:27:05.596Z,58.89
2023-05-15T11:28:05.642Z,58.36
2023-05-15T11:29:05.516Z,56.85
2023-05-15T11:30:05.548Z,57.96
2023-05-15T11:31:05.736Z,57.63
2023-05-15T11:32:05.516Z,56.00
2023-05-15T11:33:05.534Z,56.57
2023-05-15T11:34:05.627Z,56.37
2023-05-15T11:35:05.683Z,55.35
2023-05-15T11:36:05.607Z,54.67
2023-05-15T11:37:06.430Z,55.90
2023-05-15T11:38:05.423Z,56.40
2023-05-15T11:39:05.404Z,56.52
2023-05-15T11:40:05.689Z,56.10
2023-05-15T11:41:06.049Z,56.77
2023-05-15T11:42:05.605Z,55.77
2023-05-15T11:43:05.374Z,55.05
2023-05-15T11:44:05.351Z,55.27
2023-05-15T11:45:05.377Z,56.27
2023-05-15T11:46:05.368Z,56.85
2023-05-15T11:47:05.415Z,55.35
2023-05-15T11:48:05.376Z,55.72
2023-05-15T11:49:05.338Z,53.92
2023-05-15T11:50:05.331Z,54.62
2023-05-15T11:51:05.254Z,54.82
2023-05-15T11:52:05.257Z,54.35
2023-05-15T11:53:05.361Z,54.57
2023-05-15T11:54:06.310Z,54.37
2023-05-15T11:55:05.233Z,53.87
2023-05-15T11:56:05.225Z,53.37
2023-05-15T11:57:05.237Z,55.47
2023-05-15T11:58:05.243Z,54.57
2023-05-15T11:59:05.343Z,55.24
2023-05-15T12:00:05.422Z,55.12
2023-05-15T12:01:05.554Z,53.92
2023-05-15T12:02:05.156Z,54.60
2023-05-15T12:03:05.168Z,53.87
2023-05-15T12:04:05.363Z,53.87
2023-05-15T12:05:05.188Z,52.67
2023-05-15T12:06:05.269Z,52.34
2023-05-15T12:07:05.115Z,51.67
2023-05-15T12:08:05.113Z,53.07
2023-05-15T12:09:05.126Z,52.39
2023-05-15T12:10:05.174Z,53.39
2023-05-15T12:11:05.041Z,53.07
2023-05-15T12:12:05.049Z,52.87
2023-05-15T12:13:05.055Z,52.25
2023-05-15T12:14:05.026Z,52.04
2023-05-15T12:15:04.993Z,52.84
2023-05-15T12:16:05.294Z,51.72
2023-05-15T12:17:05.087Z,51.82
2023-05-15T12:18:05.005Z,51.42
2023-05-15T12:19:04.984Z,50.84
2023-05-15T12:20:05.145Z,51.52
2023-05-15T12:21:04.976Z,50.12
2023-05-15T12:22:04.956Z,51.42
2023-05-15T12:23:04.927Z,50.99
2023-05-15T12:24:08.050Z,50.49
2023-05-15T12:25:04.892Z,50.49
2023-05-15T12:26:04.905Z,50.90
2023-05-15T12:27:04.877Z,51.10
2023-05-15T12:28:04.909Z,51.22
2023-05-15T12:29:04.857Z,51.52
2023-05-15T12:30:04.932Z,50.72
2023-05-15T12:31:05.046Z,50.02
2023-05-15T12:32:05.163Z,50.92
2023-05-15T12:33:04.822Z,51.52
2023-05-15T12:34:04.851Z,50.92
2023-05-15T12:35:05.250Z,50.40
2023-05-15T12:36:05.169Z,50.27
2023-05-15T12:37:04.815Z,49.38
2023-05-15T12:38:04.874Z,47.88
2023-05-15T12:39:04.814Z,48.97
2023-05-15T12:40:04.734Z,48.35
2023-05-15T12:41:04.725Z,49.18
2023-05-15T12:42:04.747Z,50.07
2023-05-15T12:43:04.679Z,49.38
2023-05-15T12:44:04.790Z,49.57
2023-05-15T12:45:04.735Z,49.27
2023-05-15T12:46:04.739Z,49.35
2023-05-15T12:47:04.703Z,47.96
2023-05-15T12:48:04.739Z,48.63
2023-05-15T12:49:04.629Z,49.47
2023-05-15T12:50:04.651Z,51.32
2023-05-15T12:51:04.587Z,52.69
2023-05-15T12:52:04.607Z,52.49